Terminal Aerodrome Forecast
Issued by NWS Louisville, KY

Home | Current Version | Previous Version | Text Only | Print | Product List | Glossary On
Versions: 1 2 3 4 5 6 7 8 9 10 11 12 13 14 15 16 17 18
000
FTUS43 KLMK 210520
TAFBWG
TAF
KBWG 210520Z 2106/2206 00000KT 6SM BR SCT150
     FM210800 00000KT 5SM BR SCT150
      TEMPO 2108/2112 3SM BR
     FM211300 VRB03KT P6SM SCT040 SCT250
     FM220500 VRB03KT 5SM BR SCT250=

USA.gov is the U.S. government's official web portal to all federal, state and local government web resources and services.